Time;durP1;ratioP1;P1;durP2;ratioP2;P2;SDS_P1;SDS_P2;PMS_P1;PMS_P2;Temp;Humidity;BMP_temperature;BMP_pressure;BME280_temperature;BME280_humidity;BME280_pressure;Samples;Min_cycle;Max_cycle;Signal;HPM_P1;HPM_P2
2022/07/10 00:01:41;;;;;;;16.53;5.17;;;14.50;99.90;;;;;;5012266;28;20450;-74
2022/07/10 00:04:08;;;;;;;3.47;2.73;;;14.40;99.90;;;;;;4999161;28;20518;-74
2022/07/10 00:06:36;;;;;;;4.43;3.10;;;14.40;99.90;;;;;;4995571;28;20471;-74
2022/07/10 00:09:03;;;;;;;6.90;2.40;;;14.40;99.90;;;;;;4994432;28;20463;-74
2022/07/10 00:11:29;;;;;;;9.97;3.30;;;14.40;99.90;;;;;;4994263;28;20554;-74
2022/07/10 00:13:56;;;;;;;13.23;2.73;;;14.30;99.90;;;;;;4994344;28;20455;-74
2022/07/10 00:16:24;;;;;;;12.50;2.97;;;14.30;99.90;;;;;;5011285;28;20923;-74
2022/07/10 00:18:50;;;;;;;4.00;2.80;;;14.30;99.90;;;;;;5012564;28;20462;-74
2022/07/10 00:21:17;;;;;;;10.20;2.63;;;14.20;99.90;;;;;;5012117;28;20549;-74
2022/07/10 00:23:45;;;;;;;10.43;2.70;;;14.10;99.90;;;;;;5002853;28;20447;-74
2022/07/10 00:26:12;;;;;;;4.50;2.80;;;14.10;99.90;;;;;;4996090;28;20483;-74
2022/07/10 00:28:38;;;;;;;4.00;2.53;;;14.00;99.90;;;;;;4992445;28;20459;-72
2022/07/10 00:31:05;;;;;;;12.43;3.10;;;14.00;99.90;;;;;;5005342;28;20517;-74
2022/07/10 00:33:32;;;;;;;8.87;3.07;;;14.00;99.90;;;;;;5011225;28;20446;-74
2022/07/10 00:35:59;;;;;;;8.23;2.90;;;14.00;99.90;;;;;;5006588;28;20483;-74
2022/07/10 00:38:26;;;;;;;13.00;3.50;;;13.90;99.90;;;;;;4993933;28;20448;-74
2022/07/10 00:40:53;;;;;;;8.00;3.10;;;13.80;99.90;;;;;;5008458;28;20580;-74
2022/07/10 00:43:20;;;;;;;8.43;3.10;;;13.80;99.90;;;;;;4991581;28;20461;-74
2022/07/10 00:45:47;;;;;;;6.43;3.20;;;13.80;99.90;;;;;;5003393;28;20475;-74
2022/07/10 00:48:13;;;;;;;3.50;2.33;;;13.80;99.90;;;;;;5009929;28;20450;-74
2022/07/10 00:50:41;;;;;;;10.70;3.00;;;13.80;99.90;;;;;;5002166;28;20458;-74
2022/07/10 00:53:08;;;;;;;7.93;3.03;;;13.80;99.90;;;;;;5011320;28;20489;-74
2022/07/10 00:55:36;;;;;;;5.10;2.77;;;13.80;99.90;;;;;;5006819;28;20494;-74
2022/07/10 00:58:07;;;;;;;6.40;2.90;;;13.80;99.90;;;;;;5007841;28;20513;-74
2022/07/10 01:00:37;;;;;;;4.13;2.80;;;13.80;99.90;;;;;;4993616;28;20451;-74
2022/07/10 01:03:04;;;;;;;7.07;2.80;;;13.80;99.90;;;;;;4997012;28;20554;-74
2022/07/10 01:05:31;;;;;;;6.53;2.87;;;13.70;99.90;;;;;;4993317;28;20475;-74
2022/07/10 01:07:58;;;;;;;4.50;2.73;;;13.70;99.90;;;;;;4993174;28;20506;-74
2022/07/10 01:10:25;;;;;;;5.00;2.63;;;13.70;99.90;;;;;;4992820;28;20451;-74
2022/07/10 01:12:53;;;;;;;9.53;2.97;;;13.70;99.90;;;;;;4992071;28;20457;-74
2022/07/10 01:15:21;;;;;;;17.60;3.17;;;13.60;99.90;;;;;;5000973;28;20495;-74
2022/07/10 01:17:48;;;;;;;7.57;2.90;;;13.60;99.90;;;;;;4992853;28;20801;-74
2022/07/10 01:20:15;;;;;;;5.37;3.13;;;13.60;99.90;;;;;;4993243;28;20469;-74
2022/07/10 01:22:43;;;;;;;12.73;3.40;;;13.60;99.90;;;;;;4998276;28;20454;-74
2022/07/10 01:25:11;;;;;;;12.90;3.00;;;13.60;99.90;;;;;;5010750;28;21023;-74
2022/07/10 01:27:38;;;;;;;8.77;2.60;;;13.60;99.90;;;;;;5007718;28;20537;-74
2022/07/10 01:30:06;;;;;;;4.10;2.70;;;13.60;99.90;;;;;;5010612;28;20508;-74
2022/07/10 01:32:38;;;;;;;7.73;3.10;;;13.50;99.90;;;;;;5010344;28;20874;-74
2022/07/10 01:35:05;;;;;;;7.17;2.60;;;13.40;99.90;;;;;;5000826;28;20911;-74
2022/07/10 01:37:32;;;;;;;9.93;3.17;;;13.40;99.90;;;;;;5012521;28;20454;-73
2022/07/10 01:40:00;;;;;;;10.50;3.30;;;13.40;99.90;;;;;;5012664;28;20446;-74
2022/07/10 01:42:27;;;;;;;10.00;3.07;;;13.40;99.90;;;;;;5009162;28;20510;-74
2022/07/10 01:44:54;;;;;;;4.93;3.17;;;13.30;99.90;;;;;;4992443;28;20449;-74
2022/07/10 01:47:24;;;;;;;8.63;2.90;;;13.30;99.90;;;;;;4992737;28;20558;-74
2022/07/10 01:49:50;;;;;;;5.27;3.20;;;13.20;99.90;;;;;;4992706;28;20465;-74
2022/07/10 01:52:17;;;;;;;9.57;3.10;;;13.20;99.90;;;;;;4992843;28;20852;-74
2022/07/10 01:54:44;;;;;;;8.77;2.50;;;13.20;99.90;;;;;;4992390;28;20451;-74
2022/07/10 01:57:13;;;;;;;8.10;3.27;;;13.20;99.90;;;;;;4992429;28;20490;-73
2022/07/10 01:59:39;;;;;;;4.90;3.03;;;13.10;99.90;;;;;;4992960;28;20459;-74
2022/07/10 02:02:07;;;;;;;4.70;2.97;;;13.10;99.90;;;;;;4992766;28;20451;-74
2022/07/10 02:04:41;;;;;;;6.13;3.13;;;13.10;99.90;;;;;;4992460;28;20797;-74
2022/07/10 02:07:08;;;;;;;4.30;2.70;;;13.00;99.90;;;;;;4992653;28;20481;-73
2022/07/10 02:09:35;;;;;;;6.27;2.87;;;13.00;99.90;;;;;;4992332;28;20872;-74
2022/07/10 02:12:01;;;;;;;8.00;3.10;;;12.90;99.90;;;;;;4992412;28;20951;-73
2022/07/10 02:14:29;;;;;;;5.10;2.60;;;12.90;99.90;;;;;;4992493;28;20849;-74
2022/07/10 02:16:56;;;;;;;6.70;3.10;;;12.90;99.90;;;;;;4992309;28;20491;-74
2022/07/10 02:19:23;;;;;;;8.63;2.87;;;12.80;99.90;;;;;;4992308;28;20517;-74
2022/07/10 02:21:49;;;;;;;9.47;2.90;;;12.70;99.90;;;;;;4991990;28;20479;-73
2022/07/10 02:24:16;;;;;;;4.20;3.37;;;12.70;99.90;;;;;;4991935;28;20481;-73
2022/07/10 02:26:43;;;;;;;7.43;3.27;;;12.60;99.90;;;;;;4992639;28;20475;-73
2022/07/10 02:29:10;;;;;;;8.10;3.17;;;12.60;99.90;;;;;;4992329;28;20451;-73
2022/07/10 02:31:40;;;;;;;8.20;3.27;;;12.60;99.90;;;;;;4992395;28;20522;-73
2022/07/10 02:34:07;;;;;;;6.50;2.63;;;12.70;99.90;;;;;;4992224;28;20459;-73
2022/07/10 02:36:33;;;;;;;9.03;3.23;;;12.70;99.90;;;;;;4992081;28;20487;-73
2022/07/10 02:39:00;;;;;;;12.07;3.07;;;12.70;99.90;;;;;;4992951;28;20455;-73
2022/07/10 02:41:27;;;;;;;9.70;2.87;;;12.70;99.90;;;;;;4993195;28;20447;-73
2022/07/10 02:43:53;;;;;;;9.00;2.93;;;12.70;99.90;;;;;;4992018;28;20448;-73
2022/07/10 02:46:20;;;;;;;7.37;2.80;;;12.70;99.90;;;;;;4992321;28;20467;-73
2022/07/10 02:48:48;;;;;;;6.93;2.60;;;12.60;99.90;;;;;;4991941;28;20446;-73
2022/07/10 02:51:15;;;;;;;5.43;2.77;;;12.60;99.90;;;;;;4992171;28;20525;-73
2022/07/10 02:53:41;;;;;;;6.20;2.70;;;12.60;99.90;;;;;;4991936;28;20454;-73
2022/07/10 02:56:08;;;;;;;13.77;2.90;;;12.60;99.90;;;;;;4991981;28;20486;-73
2022/07/10 02:58:35;;;;;;;7.83;3.17;;;12.60;99.90;;;;;;4992165;28;20458;-73
2022/07/10 03:01:02;;;;;;;5.20;2.67;;;12.70;99.90;;;;;;4992069;28;20454;-72
2022/07/10 03:03:28;;;;;;;5.93;3.10;;;12.70;99.90;;;;;;4991642;28;20455;-72
2022/07/10 03:05:56;;;;;;;7.97;3.60;;;12.80;99.90;;;;;;4992125;28;20471;-72
2022/07/10 03:08:23;;;;;;;7.53;2.93;;;12.80;99.90;;;;;;4992000;28;20446;-73
2022/07/10 03:10:50;;;;;;;7.87;3.20;;;12.80;99.90;;;;;;4992210;28;20459;-72
2022/07/10 03:13:16;;;;;;;9.40;2.93;;;12.70;99.90;;;;;;4991670;28;20587;-73
2022/07/10 03:15:43;;;;;;;4.97;3.23;;;12.70;99.90;;;;;;4991580;28;20478;-73
2022/07/10 03:18:10;;;;;;;16.93;3.13;;;12.70;99.90;;;;;;4992008;28;20510;-72
2022/07/10 03:20:36;;;;;;;4.97;2.70;;;12.60;99.90;;;;;;4994140;28;20530;-73
2022/07/10 03:23:04;;;;;;;11.57;3.37;;;12.60;99.90;;;;;;4992465;28;20512;-73
2022/07/10 03:25:31;;;;;;;6.50;2.90;;;12.50;99.90;;;;;;4991619;28;20537;-73
2022/07/10 03:27:57;;;;;;;11.23;3.13;;;12.50;99.90;;;;;;4991716;28;20447;-73
2022/07/10 03:30:24;;;;;;;10.53;3.40;;;12.50;99.90;;;;;;4991568;28;20539;-73
2022/07/10 03:32:51;;;;;;;8.77;3.37;;;12.40;99.90;;;;;;4993355;28;20862;-72
2022/07/10 03:35:17;;;;;;;9.90;3.20;;;12.50;99.90;;;;;;4995202;28;20502;-73
2022/07/10 03:37:44;;;;;;;4.87;2.80;;;12.50;99.90;;;;;;4995222;28;20486;-73
2022/07/10 03:40:12;;;;;;;8.23;2.70;;;12.50;99.90;;;;;;4995179;28;20943;-72
2022/07/10 03:42:39;;;;;;;8.40;3.10;;;12.40;99.90;;;;;;4995013;28;20454;-72
2022/07/10 03:45:06;;;;;;;15.97;3.17;;;12.40;99.90;;;;;;4994556;28;21325;-73
2022/07/10 03:47:33;;;;;;;12.30;2.97;;;12.40;99.90;;;;;;4995147;28;20443;-72
2022/07/10 03:50:00;;;;;;;13.23;3.43;;;12.40;99.90;;;;;;4994676;28;20852;-72
2022/07/10 03:52:26;;;;;;;5.10;3.00;;;12.40;99.90;;;;;;4994848;28;20456;-73
2022/07/10 03:54:54;;;;;;;5.20;2.70;;;12.50;99.90;;;;;;4994342;28;20454;-73
2022/07/10 04:00:08;;;;;;;5.40;2.93;;;12.50;99.90;;;;;;4994969;28;20800;-72
2022/07/10 04:02:34;;;;;;;4.90;2.40;;;12.60;99.90;;;;;;4994753;28;20451;-72
2022/07/10 04:05:01;;;;;;;4.97;2.10;;;12.60;99.90;;;;;;4994323;28;20467;-73
2022/07/10 04:07:28;;;;;;;13.47;2.70;;;12.60;99.90;;;;;;4994485;28;20451;-73
2022/07/10 04:09:55;;;;;;;2.87;2.27;;;12.60;99.90;;;;;;4994853;28;20455;-73
2022/07/10 04:12:23;;;;;;;3.80;2.30;;;12.70;99.90;;;;;;4994821;28;20451;-73
2022/07/10 04:14:51;;;;;;;7.60;3.00;;;12.70;99.90;;;;;;4994216;28;20498;-73
2022/07/10 04:17:17;;;;;;;3.50;1.90;;;12.80;99.90;;;;;;4994417;28;20577;-73
2022/07/10 04:19:44;;;;;;;2.50;2.00;;;12.80;99.90;;;;;;4994312;28;20501;-72
2022/07/10 04:22:11;;;;;;;3.20;1.90;;;12.80;99.90;;;;;;4994165;28;20447;-73
2022/07/10 04:24:37;;;;;;;7.63;2.37;;;12.90;99.90;;;;;;4994188;28;20459;-73
2022/07/10 04:27:06;;;;;;;4.53;2.20;;;12.90;99.90;;;;;;4994386;28;20506;-73
2022/07/10 04:29:34;;;;;;;9.27;2.40;;;13.00;99.90;;;;;;4994166;28;20898;-73
2022/07/10 04:32:01;;;;;;;5.30;2.27;;;13.00;99.90;;;;;;4994248;28;20502;-73
2022/07/10 04:34:27;;;;;;;2.43;2.00;;;13.00;99.90;;;;;;4993758;28;20454;-72
2022/07/10 04:36:54;;;;;;;6.70;2.13;;;13.00;99.90;;;;;;4993958;28;20491;-72
2022/07/10 04:39:21;;;;;;;3.63;1.93;;;13.10;99.90;;;;;;4993942;28;20455;-71
2022/07/10 04:41:48;;;;;;;4.67;2.10;;;13.10;99.90;;;;;;4994107;28;20486;-72
2022/07/10 04:44:15;;;;;;;8.13;2.17;;;13.20;99.90;;;;;;4993274;28;20447;-72
2022/07/10 04:46:43;;;;;;;7.03;2.30;;;13.20;99.90;;;;;;4991569;28;20487;-72
2022/07/10 04:49:09;;;;;;;6.93;2.43;;;13.20;99.90;;;;;;4989431;28;20514;-72
2022/07/10 04:51:36;;;;;;;3.70;1.90;;;13.30;99.90;;;;;;4993855;28;20534;-71
2022/07/10 04:54:03;;;;;;;5.30;2.67;;;13.30;99.90;;;;;;4993489;28;20460;-72
2022/07/10 04:56:29;;;;;;;2.67;1.90;;;13.30;99.90;;;;;;4993560;28;20483;-72
2022/07/10 04:58:56;;;;;;;5.23;2.77;;;13.40;99.90;;;;;;4993529;28;20509;-72
2022/07/10 05:01:22;;;;;;;3.97;2.07;;;13.40;99.90;;;;;;4993270;28;20522;-71
2022/07/10 05:03:50;;;;;;;4.43;2.00;;;13.50;99.90;;;;;;4993095;28;20447;-72
2022/07/10 05:06:17;;;;;;;2.50;1.83;;;13.60;99.90;;;;;;4993516;28;20517;-72
2022/07/10 05:08:44;;;;;;;3.10;2.00;;;13.60;99.90;;;;;;4993387;28;20447;-72
2022/07/10 05:11:10;;;;;;;6.60;1.80;;;13.70;99.90;;;;;;4993249;28;20509;-72
2022/07/10 05:13:37;;;;;;;4.90;2.00;;;13.70;99.90;;;;;;4992737;28;20948;-72
2022/07/10 05:16:04;;;;;;;3.10;1.80;;;13.80;99.90;;;;;;4993131;28;21054;-72
2022/07/10 05:18:31;;;;;;;2.90;2.17;;;13.90;99.90;;;;;;4993308;28;20891;-72
2022/07/10 05:20:59;;;;;;;4.53;2.20;;;13.90;99.90;;;;;;4992987;28;20455;-72
2022/07/10 05:23:26;;;;;;;2.50;1.83;;;14.00;99.90;;;;;;4992792;28;20871;-72
2022/07/10 05:25:52;;;;;;;6.37;2.13;;;13.90;99.90;;;;;;4992820;28;20487;-72
2022/07/10 05:28:19;;;;;;;4.60;1.97;;;14.00;99.90;;;;;;4992577;28;20447;-71
2022/07/10 05:30:46;;;;;;;3.50;2.00;;;14.00;99.90;;;;;;4993016;28;20451;-71
2022/07/10 05:33:12;;;;;;;7.67;2.13;;;14.00;99.90;;;;;;4992701;28;20514;-72
2022/07/10 05:35:39;;;;;;;11.17;2.50;;;14.00;99.90;;;;;;4992800;28;20475;-72
2022/07/10 05:38:07;;;;;;;4.23;1.67;;;14.10;99.90;;;;;;4992817;28;20919;-72
2022/07/10 05:40:34;;;;;;;13.23;2.40;;;14.20;99.90;;;;;;4992522;28;20459;-72
2022/07/10 05:43:00;;;;;;;8.10;2.13;;;14.20;99.90;;;;;;4992705;28;20455;-72
2022/07/10 05:45:27;;;;;;;3.10;1.83;;;14.20;99.90;;;;;;4992408;28;20870;-72
2022/07/10 05:47:54;;;;;;;8.13;1.83;;;14.30;99.90;;;;;;4992452;28;20459;-72
2022/07/10 05:50:21;;;;;;;6.03;1.90;;;14.30;99.90;;;;;;4992364;28;20455;-72
2022/07/10 05:52:47;;;;;;;8.23;2.17;;;14.40;99.90;;;;;;4992480;28;20567;-72
2022/07/10 05:55:15;;;;;;;5.17;2.00;;;14.40;99.90;;;;;;4991512;28;20811;-72
2022/07/10 05:57:42;;;;;;;4.43;1.90;;;14.40;99.90;;;;;;4992740;28;20498;-72
2022/07/10 06:00:10;;;;;;;5.77;1.60;;;14.40;99.90;;;;;;4992520;28;20506;-72
2022/07/10 06:02:36;;;;;;;12.97;2.60;;;14.50;99.90;;;;;;4992442;28;20467;-72
2022/07/10 06:05:03;;;;;;;3.20;1.80;;;14.50;99.90;;;;;;4992070;28;21058;-72
2022/07/10 06:07:30;;;;;;;7.40;2.27;;;14.60;99.90;;;;;;4992512;28;20502;-72
2022/07/10 06:09:56;;;;;;;2.00;1.63;;;14.60;99.90;;;;;;4992231;28;20903;-72
2022/07/10 06:12:25;;;;;;;5.80;2.00;;;14.70;99.90;;;;;;4992576;28;20505;-72
2022/07/10 06:14:51;;;;;;;3.20;1.70;;;14.70;99.90;;;;;;4991912;28;20463;-72
2022/07/10 06:17:18;;;;;;;18.03;2.50;;;14.70;99.90;;;;;;4991704;28;20486;-72
2022/07/10 06:19:45;;;;;;;4.93;1.93;;;14.80;99.90;;;;;;5011881;28;20477;-71
2022/07/10 06:24:56;;;;;;;4.23;2.13;;;14.80;99.90;;;;;;5007612;28;20516;-72
2022/07/10 06:27:24;;;;;;;4.07;2.10;;;14.70;99.90;;;;;;4998198;28;20501;-72
2022/07/10 06:29:50;;;;;;;5.70;1.60;;;14.60;99.90;;;;;;5011332;28;20916;-74
2022/07/10 06:32:17;;;;;;;2.50;1.60;;;14.60;99.90;;;;;;4998860;28;20212;-74
2022/07/10 06:34:44;;;;;;;2.77;2.07;;;14.60;99.90;;;;;;4991565;28;20426;-74
2022/07/10 06:37:10;;;;;;;5.33;2.13;;;14.70;99.90;;;;;;4991821;28;20536;-74
2022/07/10 06:39:37;;;;;;;3.43;2.03;;;14.70;99.90;;;;;;4990429;28;20946;-73
2022/07/10 06:42:05;;;;;;;3.93;2.00;;;14.70;99.90;;;;;;4991705;28;20513;-73
2022/07/10 06:44:33;;;;;;;3.30;2.13;;;14.70;99.90;;;;;;4991015;28;20443;-73
2022/07/10 06:49:46;;;;;;;4.07;1.93;;;14.80;99.90;;;;;;4991502;28;20517;-73
2022/07/10 06:52:12;;;;;;;3.27;1.97;;;14.80;99.90;;;;;;4991819;28;20451;-74
2022/07/10 06:54:39;;;;;;;6.63;2.40;;;14.80;99.90;;;;;;4990909;28;21006;-73
2022/07/10 06:57:07;;;;;;;6.35;2.20;;;14.80;99.90;;;;;;4987893;28;20511;-72
2022/07/10 06:59:34;;;;;;;6.80;2.10;;;14.80;99.90;;;;;;4991407;28;20212;-73
2022/07/10 07:02:01;;;;;;;7.13;2.07;;;14.80;99.90;;;;;;4991697;28;20494;-72
2022/07/10 07:04:28;;;;;;;11.83;2.20;;;14.80;99.90;;;;;;4990064;28;20455;-72
2022/07/10 07:06:55;;;;;;;4.17;2.00;;;14.90;99.90;;;;;;4993604;28;20471;-75
2022/07/10 07:09:21;;;;;;;9.13;2.00;;;14.90;99.90;;;;;;4995288;28;20456;-73
2022/07/10 07:11:48;;;;;;;11.23;2.20;;;14.80;99.90;;;;;;4995579;28;20455;-72
2022/07/10 07:14:15;;;;;;;3.83;2.20;;;14.90;99.90;;;;;;4994661;28;20451;-73
2022/07/10 07:16:45;;;;;;;5.07;2.00;;;14.90;99.90;;;;;;4994717;28;20470;-74
2022/07/10 07:19:17;;;;;;;4.13;2.23;;;14.90;99.90;;;;;;4995171;28;20537;-72
2022/07/10 07:24:33;;;;;;;3.00;2.00;;;15.10;99.90;;;;;;4956690;28;20532;-72
2022/07/10 07:27:00;;;;;;;6.00;2.07;;;15.10;99.90;;;;;;4995032;28;20926;-72
2022/07/10 07:29:26;;;;;;;5.87;1.77;;;15.20;99.90;;;;;;4995073;28;20442;-73
2022/07/10 07:31:55;;;;;;;4.57;2.13;;;15.10;99.90;;;;;;4993761;28;20494;-73
2022/07/10 07:34:22;;;;;;;4.97;2.23;;;15.00;99.90;;;;;;4993059;28;20450;-73
2022/07/10 07:36:48;;;;;;;7.10;1.97;;;15.00;99.90;;;;;;4993628;28;21056;-73
2022/07/10 07:39:15;;;;;;;2.93;1.93;;;15.10;99.90;;;;;;4975476;28;20487;-74
2022/07/10 07:41:41;;;;;;;3.57;2.10;;;15.30;99.90;;;;;;4993860;28;20451;-73
2022/07/10 07:44:08;;;;;;;8.00;2.23;;;15.30;99.90;;;;;;4992934;28;20857;-72
2022/07/10 07:46:35;;;;;;;5.40;2.40;;;15.40;99.90;;;;;;4993157;28;20463;-73
2022/07/10 07:49:03;;;;;;;11.50;2.10;;;15.60;99.90;;;;;;4993637;28;20459;-73
2022/07/10 07:51:30;;;;;;;6.30;2.30;;;15.80;99.90;;;;;;4994722;28;20462;-73
2022/07/10 07:53:56;;;;;;;9.07;2.17;;;15.90;99.90;;;;;;4993831;28;20455;-72
2022/07/10 07:56:23;;;;;;;6.40;1.97;;;16.00;99.90;;;;;;4994562;28;20475;-71
2022/07/10 07:58:49;;;;;;;2.53;1.63;;;15.90;99.90;;;;;;4994273;28;20492;-72
2022/07/10 08:01:19;;;;;;;6.10;1.97;;;15.80;99.90;;;;;;4993292;28;20501;-73
2022/07/10 08:03:46;;;;;;;4.83;2.23;;;15.70;99.90;;;;;;4987858;28;20459;-71
2022/07/10 08:06:14;;;;;;;4.33;2.10;;;15.70;99.90;;;;;;4993406;28;20467;-72
2022/07/10 08:08:40;;;;;;;3.33;2.00;;;15.80;99.90;;;;;;4994528;28;20497;-72
2022/07/10 08:11:07;;;;;;;5.23;2.67;;;15.90;99.90;;;;;;4994169;28;20451;-72
2022/07/10 08:13:34;;;;;;;6.93;1.97;;;16.00;99.90;;;;;;4993337;28;20422;-72
2022/07/10 08:16:00;;;;;;;5.33;2.13;;;16.10;99.90;;;;;;4994319;28;20566;-72
2022/07/10 08:18:27;;;;;;;4.50;1.90;;;16.20;99.90;;;;;;4993340;28;20836;-72
2022/07/10 08:20:54;;;;;;;4.70;2.13;;;16.30;99.90;;;;;;4994144;28;20480;-71
2022/07/10 08:23:22;;;;;;;7.30;2.37;;;16.40;99.90;;;;;;4993328;28;20451;-72
2022/07/10 08:25:48;;;;;;;6.73;2.33;;;16.60;99.90;;;;;;4993615;28;20541;-72
2022/07/10 08:28:15;;;;;;;4.00;1.97;;;16.60;99.90;;;;;;4993989;28;20433;-72
2022/07/10 08:30:42;;;;;;;3.73;2.10;;;16.70;99.90;;;;;;4993557;28;20521;-72
2022/07/10 08:33:09;;;;;;;8.00;2.20;;;16.70;99.90;;;;;;4993452;28;20455;-72
2022/07/10 08:35:36;;;;;;;4.53;2.00;;;16.70;99.90;;;;;;4993374;28;20896;-73
2022/07/10 08:38:05;;;;;;;8.57;2.07;;;16.90;99.90;;;;;;4993981;28;20453;-73
2022/07/10 08:40:36;;;;;;;5.07;1.80;;;16.90;99.90;;;;;;4992991;28;20446;-73
2022/07/10 08:43:03;;;;;;;8.98;1.85;;;17.00;99.90;;;;;;4992413;28;20581;-73
2022/07/10 08:45:33;;;;;;;8.13;2.08;;;16.80;99.90;;;;;;4993153;28;20491;-73
2022/07/10 08:48:03;;;;;;;5.32;1.60;;;16.80;99.90;;;;;;4992346;28;20531;-73
2022/07/10 08:50:34;;;;;;;5.03;2.10;;;17.00;99.90;;;;;;4992826;28;20294;-73
2022/07/10 08:53:05;;;;;;;5.40;2.27;;;17.10;99.90;;;;;;4993530;28;20532;-72
2022/07/10 08:55:33;;;;;;;5.37;2.00;;;17.20;99.90;;;;;;4992803;28;20481;-73
2022/07/10 08:58:01;;;;;;;5.10;1.60;;;17.20;99.90;;;;;;4993567;28;20515;-73
2022/07/10 09:00:28;;;;;;;7.83;1.90;;;17.40;99.90;;;;;;4993188;28;20455;-74
2022/07/10 09:02:56;;;;;;;4.37;2.30;;;17.50;99.90;;;;;;4992685;28;20529;-74
2022/07/10 09:05:23;;;;;;;3.30;1.83;;;17.70;99.90;;;;;;4992648;28;20893;-74
2022/07/10 09:07:50;;;;;;;6.60;2.27;;;18.40;99.90;;;;;;4993116;28;20545;-74
2022/07/10 09:10:20;;;;;;;6.57;2.00;;;18.80;99.90;;;;;;4993515;28;20468;-74
2022/07/10 09:12:53;;;;;;;9.37;2.40;;;18.90;99.90;;;;;;4992386;28;20954;-74
2022/07/10 09:15:21;;;;;;;4.50;1.98;;;18.80;99.90;;;;;;4991747;28;20435;-73
2022/07/10 09:17:55;;;;;;;4.90;1.97;;;18.60;99.90;;;;;;4993086;28;20211;-73
2022/07/10 09:20:30;;;;;;;6.70;2.13;;;18.50;99.90;;;;;;4992958;28;20609;-71
2022/07/10 09:22:58;;;;;;;10.53;2.40;;;18.70;99.90;;;;;;4992198;28;20837;-73
2022/07/10 09:25:32;;;;;;;7.80;2.20;;;19.00;99.90;;;;;;4992047;28;20482;-74
2022/07/10 09:28:05;;;;;;;7.53;2.20;;;19.40;99.90;;;;;;4991943;28;20494;-73
2022/07/10 09:30:36;;;;;;;6.30;2.17;;;19.50;99.90;;;;;;4992724;28;20821;-73
2022/07/10 09:33:17;;;;;;;4.80;1.90;;;19.20;99.90;;;;;;4991893;28;20426;-73
2022/07/10 09:36:08;;;;;;;3.93;2.07;;;19.00;99.90;;;;;;4992614;28;20885;-73
2022/07/10 09:38:53;;;;;;;7.33;2.53;;;18.90;99.90;;;;;;4992922;28;20582;-73
2022/07/10 09:41:26;;;;;;;7.40;2.07;;;18.70;99.90;;;;;;4992581;28;20516;-74
2022/07/10 09:43:56;;;;;;;3.33;2.37;;;18.60;99.90;;;;;;4991997;28;20430;-74
2022/07/10 09:46:24;;;;;;;4.17;1.80;;;18.50;99.90;;;;;;4992512;28;20479;-74
2022/07/10 09:49:03;;;;;;;3.67;1.97;;;18.70;99.90;;;;;;4992130;28;20505;-73
2022/07/10 09:51:32;;;;;;;2.60;1.80;;;19.40;99.90;;;;;;4992408;28;20451;-72
2022/07/10 09:54:01;;;;;;;5.70;2.07;;;20.20;99.90;;;;;;4991871;28;20461;-71
2022/07/10 09:56:34;;;;;;;5.93;2.10;;;20.40;99.90;;;;;;4992450;28;20557;-72
2022/07/10 09:59:07;;;;;;;4.07;2.20;;;20.30;99.90;;;;;;4992334;28;20472;-72
2022/07/10 10:01:36;;;;;;;3.10;2.00;;;20.40;99.90;;;;;;4992354;28;20803;-72
2022/07/10 10:04:05;;;;;;;4.87;2.00;;;20.40;99.90;;;;;;4991166;28;20428;-72
2022/07/10 10:06:33;;;;;;;3.30;2.00;;;20.50;99.90;;;;;;4992205;28;20901;-72
2022/07/10 10:09:05;;;;;;;3.90;2.10;;;20.40;99.90;;;;;;4992076;28;20866;-72
2022/07/10 10:11:35;;;;;;;6.17;1.90;;;20.60;99.90;;;;;;4992138;28;20517;-72
2022/07/10 10:14:03;;;;;;;3.03;1.80;;;21.10;99.90;;;;;;4991513;28;20528;-72
2022/07/10 10:16:30;;;;;;;3.50;2.00;;;21.70;99.90;;;;;;4991954;28;20881;-72
2022/07/10 10:21:42;;;;;;;7.90;1.77;;;22.00;99.90;;;;;;4992307;28;20427;-71
2022/07/10 10:24:09;;;;;;;4.50;2.03;;;21.60;99.90;;;;;;4990744;28;20597;-71
2022/07/10 10:26:35;;;;;;;8.00;2.03;;;21.30;99.90;;;;;;4991879;28;20529;-73
2022/07/10 10:29:06;;;;;;;3.97;1.90;;;21.00;99.90;;;;;;4991960;28;20505;-73
2022/07/10 10:31:34;;;;;;;7.93;1.93;;;20.90;99.90;;;;;;4991986;28;20455;-73
2022/07/10 10:34:01;;;;;;;5.40;2.17;;;20.70;99.90;;;;;;4991232;28;20487;-73
2022/07/10 10:36:46;;;;;;;7.53;2.00;;;20.60;99.90;;;;;;4972586;28;20526;-75
2022/07/10 10:39:13;;;;;;;6.53;2.20;;;20.70;99.90;;;;;;4971367;28;20488;-72
2022/07/10 10:41:43;;;;;;;8.93;1.83;;;20.80;99.90;;;;;;4974131;28;20981;-74
2022/07/10 10:44:31;;;;;;;4.20;1.60;;;21.10;99.90;;;;;;4976187;28;20529;-75
2022/07/10 10:47:05;;;;;;;2.60;1.73;;;21.60;99.90;;;;;;4985332;28;20483;-75
2022/07/10 10:50:01;;;;;;;4.10;1.97;;;22.00;99.90;;;;;;4995383;28;20538;-76
2022/07/10 10:52:28;;;;;;;5.77;1.80;;;22.10;99.90;;;;;;4981109;28;20470;-76
2022/07/10 10:55:07;;;;;;;5.27;1.87;;;22.40;99.90;;;;;;4994877;28;20846;-75
2022/07/10 10:57:43;;;;;;;3.73;1.73;;;22.90;99.90;;;;;;4995830;28;20489;-75
2022/07/10 11:00:14;;;;;;;5.30;2.10;;;22.80;99.90;;;;;;4995801;28;20929;-75
2022/07/10 11:02:49;;;;;;;2.27;1.50;;;22.20;99.90;;;;;;4995835;28;20513;-76
2022/07/10 11:05:44;;;;;;;6.90;2.00;;;21.80;99.90;;;;;;4995547;28;20509;-74
2022/07/10 11:08:11;;;;;;;6.13;1.80;;;21.20;99.90;;;;;;4995477;28;20550;-75
2022/07/10 11:10:40;;;;;;;6.73;2.00;;;21.10;99.90;;;;;;4995374;28;20498;-75
2022/07/10 11:13:08;;;;;;;4.10;1.80;;;21.20;99.90;;;;;;4995488;28;20450;-75
2022/07/10 11:15:38;;;;;;;4.23;1.60;;;21.30;99.90;;;;;;4995270;28;20499;-75
2022/07/10 11:18:09;;;;;;;4.97;2.13;;;21.80;99.90;;;;;;4995622;28;20485;-75
2022/07/10 11:20:38;;;;;;;3.80;1.77;;;22.10;99.90;;;;;;4995352;28;20447;-75
2022/07/10 11:23:30;;;;;;;4.50;1.70;;;22.30;99.90;;;;;;4995283;28;20782;-74
2022/07/10 11:26:07;;;;;;;4.43;1.60;;;22.40;99.90;;;;;;4995319;28;20479;-73
2022/07/10 11:28:47;;;;;;;7.80;2.10;;;22.60;99.90;;;;;;4998945;28;20443;-74
2022/07/10 11:31:16;;;;;;;5.50;1.77;;;22.40;99.90;;;;;;4988946;28;20497;-79
2022/07/10 11:33:44;;;;;;;2.87;1.87;;;22.30;99.90;;;;;;5004595;28;20461;-72
2022/07/10 11:36:13;;;;;;;3.63;2.00;;;22.30;99.90;;;;;;5008512;28;20989;-73
2022/07/10 11:38:40;;;;;;;3.83;1.70;;;22.30;99.90;;;;;;5003139;28;20483;-72
2022/07/10 11:41:13;;;;;;;2.20;1.63;;;22.30;99.90;;;;;;5003090;28;20932;-72
2022/07/10 11:43:47;;;;;;;4.53;1.70;;;22.30;99.90;;;;;;5005909;28;20847;-74
2022/07/10 11:46:15;;;;;;;4.30;1.77;;;22.30;99.90;;;;;;5009937;28;20533;-72
2022/07/10 11:48:42;;;;;;;4.40;1.97;;;22.10;99.90;;;;;;4995596;28;20870;-74
2022/07/10 11:51:26;;;;;;;5.30;1.87;;;22.00;99.90;;;;;;5005543;28;20541;-73
2022/07/10 11:54:12;;;;;;;3.37;1.50;;;21.80;99.90;;;;;;5005232;28;20462;-73
2022/07/10 11:56:41;;;;;;;3.03;1.50;;;21.50;99.90;;;;;;4996135;28;20502;-78
2022/07/10 11:59:09;;;;;;;5.03;1.60;;;21.50;99.90;;;;;;5003403;28;20490;-74
2022/07/10 12:01:44;;;;;;;3.27;1.50;;;21.50;99.90;;;;;;5002946;28;21250;-75
2022/07/10 12:04:11;;;;;;;2.80;1.70;;;21.40;99.90;;;;;;5005295;28;21011;-77
2022/07/10 12:06:41;;;;;;;2.50;1.50;;;21.50;99.90;;;;;;5002881;28;20474;-77
2022/07/10 12:09:09;;;;;;;4.77;1.67;;;21.50;99.90;;;;;;5011231;28;20872;-77
2022/07/10 12:11:37;;;;;;;5.70;1.93;;;21.60;99.90;;;;;;4992637;28;20470;-76
2022/07/10 12:14:14;;;;;;;109.93;90.90;;;21.60;99.90;;;;;;4994822;28;20456;-75
2022/07/10 12:16:43;;;;;;;10.17;8.07;;;21.60;99.90;;;;;;4993455;28;20487;-76
2022/07/10 12:19:12;;;;;;;3.90;2.53;;;21.60;99.90;;;;;;4994347;28;20490;-77
2022/07/10 12:21:39;;;;;;;6.37;3.33;;;21.60;99.90;;;;;;5002332;28;20452;-77
2022/07/10 12:24:06;;;;;;;3.27;1.60;;;21.60;99.90;;;;;;4997153;28;20458;-78
2022/07/10 12:26:34;;;;;;;9.53;2.93;;;21.70;99.90;;;;;;5002585;28;20987;-77
2022/07/10 12:29:01;;;;;;;3.63;2.50;;;21.60;99.90;;;;;;5001264;28;20503;-76
2022/07/10 12:31:31;;;;;;;2.63;1.60;;;21.80;99.90;;;;;;4997114;28;20459;-81
2022/07/10 12:34:02;;;;;;;6.80;2.53;;;22.20;99.90;;;;;;5004194;28;20459;-79
2022/07/10 12:36:43;;;;;;;3.90;1.90;;;22.40;99.90;;;;;;4997101;28;20454;-79
2022/07/10 12:39:10;;;;;;;4.10;1.67;;;22.30;99.90;;;;;;5002995;28;20211;-74
2022/07/10 12:41:56;;;;;;;4.43;1.90;;;22.20;99.90;;;;;;5005653;28;20505;-80
2022/07/10 12:44:31;;;;;;;3.07;1.80;;;22.20;99.90;;;;;;4997733;28;20494;-81
2022/07/10 12:47:01;;;;;;;5.10;2.30;;;22.20;99.90;;;;;;5000051;28;20474;-79
2022/07/10 12:49:29;;;;;;;4.10;2.17;;;22.30;99.90;;;;;;5004937;28;20455;-78
2022/07/10 12:51:56;;;;;;;2.37;1.60;;;22.50;99.90;;;;;;4993754;28;20442;-79
2022/07/10 12:54:33;;;;;;;5.43;2.27;;;23.00;99.90;;;;;;5014277;28;20446;-79
2022/07/10 12:57:01;;;;;;;3.10;1.47;;;23.50;99.90;;;;;;4997927;28;20478;-76
2022/07/10 12:59:28;;;;;;;3.13;1.90;;;23.80;99.90;;;;;;5009625;28;20481;-75
2022/07/10 13:01:55;;;;;;;3.27;1.73;;;23.80;99.90;;;;;;5011892;28;20902;-75
2022/07/10 13:04:26;;;;;;;3.30;1.50;;;23.50;99.90;;;;;;4983652;28;20946;-75
2022/07/10 13:06:55;;;;;;;5.43;1.97;;;23.30;99.90;;;;;;4989995;28;20482;-74